createdAt,value
2018-05-03T00:00:24.306Z,6.67
2018-05-03T00:06:19.313Z,6.68
2018-05-03T00:12:14.306Z,5.79
2018-05-03T00:18:09.344Z,6.11
2018-05-03T00:24:04.375Z,5.41
2018-05-03T00:29:59.308Z,5.56
2018-05-03T00:35:54.279Z,5.67
2018-05-03T00:41:49.290Z,6.3
2018-05-03T00:47:44.350Z,4.87
2018-05-03T00:53:39.341Z,6.56
2018-05-03T00:59:34.376Z,5.84
2018-05-03T01:05:29.331Z,5.65
2018-05-03T01:11:24.345Z,5.85
2018-05-03T01:17:19.422Z,5.86
2018-05-03T01:23:14.379Z,6.56
2018-05-03T01:29:09.364Z,5.87
2018-05-03T01:35:04.388Z,6.01
2018-05-03T01:40:59.339Z,5.8
2018-05-03T01:46:54.384Z,5.84
2018-05-03T01:52:49.398Z,6.02
2018-05-03T01:58:44.357Z,5.37
2018-05-03T02:04:39.369Z,5.81
2018-05-03T02:10:34.383Z,5.32
2018-05-03T02:16:29.376Z,5.27
2018-05-03T02:22:24.433Z,5.5
2018-05-03T02:28:19.379Z,5.01
2018-05-03T02:34:14.415Z,5.12
2018-05-03T02:40:09.456Z,5.75
2018-05-03T02:46:04.423Z,5.04
2018-05-03T02:51:59.451Z,6.5
2018-05-03T02:57:54.435Z,5.85
2018-05-03T03:03:49.434Z,5.8
2018-05-03T03:09:44.518Z,4.8
2018-05-03T03:15:39.435Z,4.9
2018-05-03T03:21:34.473Z,5.03
2018-05-03T03:27:29.430Z,4.68
2018-05-03T03:33:24.437Z,5.59
2018-05-03T03:39:19.499Z,5.23
2018-05-03T03:45:14.479Z,6.43
2018-05-03T03:51:09.473Z,4.65
2018-05-03T03:57:04.490Z,4.83
2018-05-03T04:02:59.505Z,5.35
2018-05-03T04:08:54.517Z,4.98
2018-05-03T04:14:49.475Z,5.2
2018-05-03T04:20:44.506Z,4.75
2018-05-03T04:26:39.529Z,4.41
2018-05-03T04:32:34.489Z,4.76
2018-05-03T04:38:29.535Z,4.74
2018-05-03T04:44:24.547Z,3.89
2018-05-03T04:50:19.489Z,4.93
2018-05-03T04:56:14.526Z,4.55
2018-05-03T05:02:09.516Z,5.33
2018-05-03T05:08:04.534Z,4.75
2018-05-03T05:13:59.585Z,4.75
2018-05-03T05:19:54.570Z,5.26
2018-05-03T05:25:49.585Z,4.75
2018-05-03T05:31:44.551Z,5.29
2018-05-03T05:37:39.533Z,5.9
2018-05-03T05:43:34.547Z,6.61
2018-05-03T05:49:29.593Z,6.74
2018-05-03T05:55:24.639Z,5.98
2018-05-03T06:01:19.590Z,6.33
2018-05-03T06:07:14.612Z,5.72
2018-05-03T06:13:09.644Z,6.4
2018-05-03T06:19:04.627Z,5.47
2018-05-03T06:24:59.574Z,5.45
2018-05-03T06:30:54.610Z,5.56
2018-05-03T06:36:49.598Z,5.29
2018-05-03T06:42:44.659Z,4.89
2018-05-03T06:48:39.621Z,5.27
2018-05-03T06:54:34.671Z,4.49
2018-05-03T07:00:29.645Z,4
2018-05-03T07:06:24.615Z,3.77
2018-05-03T07:12:19.640Z,3.36
2018-05-03T07:18:14.695Z,3.73
2018-05-03T07:24:09.639Z,3.71
2018-05-03T07:30:04.674Z,4.18
2018-05-03T07:35:59.661Z,4.08
2018-05-03T07:41:54.681Z,4.29
2018-05-03T07:47:49.654Z,3.86
2018-05-03T07:53:44.682Z,4.39
2018-05-03T07:59:39.665Z,4.57
2018-05-03T08:05:34.667Z,5.15
2018-05-03T08:11:29.748Z,4.52
2018-05-03T08:17:24.687Z,4.78
2018-05-03T08:23:19.708Z,4.82
2018-05-03T08:29:14.716Z,4.53
2018-05-03T08:35:09.742Z,4.81
2018-05-03T08:41:04.692Z,5.12
2018-05-03T08:46:59.738Z,5.5
2018-05-03T08:52:54.751Z,4.7
2018-05-03T08:58:49.794Z,5.24
2018-05-03T09:04:44.773Z,5.45
2018-05-03T09:10:39.740Z,6.16
2018-05-03T09:16:34.777Z,5.16
2018-05-03T09:22:29.874Z,5.22
2018-05-03T09:28:24.801Z,5.57
2018-05-03T09:34:19.767Z,5.44
2018-05-03T09:40:14.776Z,4.35
2018-05-03T09:46:09.887Z,4.29
2018-05-03T09:52:04.773Z,5.11
2018-05-03T09:57:59.795Z,4.19
2018-05-03T10:03:54.817Z,4.28
2018-05-03T10:09:49.830Z,4.34
2018-05-03T10:15:44.838Z,3.79
2018-05-03T10:21:39.797Z,3.91
2018-05-03T10:27:34.798Z,4.41
2018-05-03T10:33:29.876Z,3.83
2018-05-03T10:39:24.800Z,3.8
2018-05-03T10:45:19.884Z,3.58
2018-05-03T10:51:14.819Z,4.1
2018-05-03T10:57:09.855Z,3.71
2018-05-03T11:03:04.862Z,3.65
2018-05-03T11:08:59.850Z,3.63
2018-05-03T11:14:54.884Z,4.13
2018-05-03T11:20:49.896Z,4
2018-05-03T11:26:44.853Z,3.67
2018-05-03T11:32:39.962Z,3.64
2018-05-03T11:38:34.884Z,4.04
2018-05-03T11:44:29.862Z,4.08
2018-05-03T11:50:24.912Z,4.43
2018-05-03T11:56:19.901Z,4.37
2018-05-03T12:02:14.896Z,4.21
2018-05-03T12:08:09.940Z,3.92
2018-05-03T12:14:04.958Z,4.6
2018-05-03T12:19:59.920Z,4.29
2018-05-03T12:25:54.961Z,5.07
2018-05-03T12:31:49.953Z,5.11
2018-05-03T12:37:44.909Z,5.4
2018-05-03T12:43:39.951Z,5.12
2018-05-03T12:49:34.947Z,4.87
2018-05-03T12:55:29.981Z,4.93
2018-05-03T13:01:24.975Z,5.15
2018-05-03T13:07:19.972Z,5.9
2018-05-03T13:13:14.933Z,6.17
2018-05-03T13:19:09.970Z,5.51
2018-05-03T13:25:05.042Z,6.13
2018-05-03T13:30:59.994Z,6.69
2018-05-03T13:36:54.958Z,6.12
2018-05-03T13:42:50.003Z,6.57
2018-05-03T13:48:45.000Z,6.61
2018-05-03T13:54:39.999Z,6.59
2018-05-03T14:00:35.015Z,6.81
2018-05-03T14:06:29.985Z,6.71
2018-05-03T14:12:25.111Z,7.2
2018-05-03T14:18:20.020Z,5.82
2018-05-03T14:24:15.048Z,6.56
2018-05-03T14:30:10.031Z,7.82
2018-05-03T14:36:05.088Z,7.67
2018-05-03T14:42:00.131Z,6
2018-05-03T14:47:55.050Z,3.6
2018-05-03T14:53:50.053Z,2.82
2018-05-03T14:59:45.102Z,4.55
2018-05-03T15:05:40.062Z,4.77
2018-05-03T15:11:35.070Z,3.97
2018-05-03T15:17:30.073Z,3.17
2018-05-03T15:23:25.071Z,2.87
2018-05-03T15:29:20.077Z,2.22
2018-05-03T15:35:15.131Z,2.51
2018-05-03T15:41:10.107Z,2.09
2018-05-03T15:47:05.129Z,2.05
2018-05-03T15:53:00.096Z,2.02
2018-05-03T15:58:55.095Z,2.75
2018-05-03T16:04:50.102Z,2.63
2018-05-03T16:10:45.186Z,3.4
2018-05-03T16:16:40.140Z,3.94
2018-05-03T16:22:35.156Z,3.56
2018-05-03T16:28:30.141Z,2.75
2018-05-03T16:34:25.210Z,2.37
2018-05-03T16:40:20.129Z,2.32
2018-05-03T16:46:15.154Z,2.34
2018-05-03T16:52:10.141Z,2.07
2018-05-03T16:58:05.135Z,1.78
2018-05-03T17:04:00.160Z,2.06
2018-05-03T17:09:55.187Z,2.68
2018-05-03T17:15:50.232Z,2.2
2018-05-03T17:21:45.193Z,1.94
2018-05-03T17:27:40.186Z,2.64
2018-05-03T17:33:35.188Z,2.6
2018-05-03T17:39:30.252Z,2.61
2018-05-03T17:45:25.217Z,2.83
2018-05-03T17:51:20.485Z,2.64
2018-05-03T17:57:15.239Z,2.95
2018-05-03T18:03:10.218Z,3.2
2018-05-03T18:09:05.200Z,2.76
2018-05-03T18:15:00.232Z,3.08
2018-05-03T18:20:55.353Z,2.48
2018-05-03T18:26:50.232Z,2.21
2018-05-03T18:32:45.272Z,2.64
2018-05-03T18:38:40.232Z,2.87
2018-05-03T18:44:35.230Z,3.04
2018-05-03T18:50:30.291Z,3.1
2018-05-03T18:56:25.256Z,3.17
2018-05-03T19:02:20.336Z,2.97
2018-05-03T19:08:15.282Z,3.67
2018-05-03T19:14:10.341Z,3.97
2018-05-03T19:20:05.299Z,3.03
2018-05-03T19:26:00.284Z,3.04
2018-05-03T19:31:55.289Z,2.9
2018-05-03T19:37:50.344Z,4.02
2018-05-03T19:43:45.313Z,3.39
2018-05-03T19:49:40.311Z,4.64
2018-05-03T19:55:35.340Z,3.14
2018-05-03T20:01:30.328Z,3.24
2018-05-03T20:07:25.362Z,3.89
2018-05-03T20:13:20.366Z,4.15
2018-05-03T20:19:15.346Z,4.24
2018-05-03T20:25:10.317Z,4.51
2018-05-03T20:31:05.329Z,4.53
2018-05-03T20:37:00.409Z,5.09
2018-05-03T20:42:55.352Z,4.62
2018-05-03T20:48:50.395Z,5.26
2018-05-03T20:54:45.375Z,5.47
2018-05-03T21:00:40.391Z,4.71
2018-05-03T21:06:35.367Z,4.62
2018-05-03T21:12:30.357Z,4.64
2018-05-03T21:18:25.385Z,4.26
2018-05-03T21:24:20.476Z,5.37
2018-05-03T21:30:15.477Z,4.86
2018-05-03T21:36:10.409Z,4.66
2018-05-03T21:42:05.452Z,4.41
2018-05-03T21:48:00.401Z,4.95
2018-05-03T21:53:55.425Z,4.67
2018-05-03T21:59:50.438Z,4.48
2018-05-03T22:05:45.444Z,4.91
2018-05-03T22:11:40.437Z,4.17
2018-05-03T22:17:35.419Z,3.36
2018-05-03T22:23:30.424Z,2.98
2018-05-03T22:29:25.470Z,2.47
2018-05-03T22:35:20.436Z,2.69
2018-05-03T22:41:15.453Z,2.89
2018-05-03T22:47:10.485Z,2.67
2018-05-03T22:53:05.459Z,3
2018-05-03T22:59:00.560Z,2.91
2018-05-03T23:04:55.496Z,2.72
2018-05-03T23:10:50.476Z,3.25
2018-05-03T23:16:45.469Z,2.33
2018-05-03T23:22:40.514Z,2.56
2018-05-03T23:28:35.498Z,1.9
2018-05-03T23:34:30.526Z,2.32
2018-05-03T23:40:25.518Z,1.93
2018-05-03T23:46:20.494Z,1.97
2018-05-03T23:52:15.500Z,1.79
2018-05-03T23:58:10.540Z,2.01
